This is the latest recevied weather packets stored in our database for station/object Seibranz. If no packets are shown the sender has not sent any weather packets the latest 10 day(s).
| Time | Temp. | Humidity | Pressure | Rain* | Wind** | Luminosity | Snow |
|---|---|---|---|---|---|---|---|
| 1788400929 | 9.44° C | 91% | 1021.6 hPa | 0 mm | - | - | - |
| 1788399130 | 9.44° C | 91% | 1021.5 hPa | 0 mm | - | - | - |
| 1788397329 | 10° C | 91% | 1021.5 hPa | 0 mm | - | - | - |
| 1788395531 | 11.11° C | 90% | 1021.4 hPa | 0 mm | - | - | - |
| 1788393732 | 10.56° C | 91% | 1021.5 hPa | 0 mm | - | - | - |
| 1788391932 | 10.56° C | 90% | 1021.4 hPa | 0 mm | - | - | - |
| 1788390131 | 11.11° C | 89% | 1021.5 hPa | 0 mm | - | - | - |
| 1788388331 | 12.22° C | 88% | 1021.7 hPa | 0 mm | - | - | - |
| 1788386531 | 12.78° C | 86% | 1021.5 hPa | 0 mm | - | - | - |
| 1788384731 | 12.78° C | 85% | 1021.3 hPa | 0 mm | - | - | - |
| 1788382931 | 13.33° C | 82% | 1021.1 hPa | 0 mm | - | - | - |
| 1788381131 | 13.33° C | 85% | 1021.1 hPa | 0 mm | - | - | - |
| 1788379331 | 13.33° C | 82% | 1021 hPa | 0 mm | - | - | - |
| 1788377531 | 13.89° C | 77% | 1020.9 hPa | 0 mm | - | - | - |
| 1788375756 | 17.22° C | 68% | 1020.5 hPa | 0 mm | - | - | - |
| 1788373931 | 17.78° C | 65% | 1020 hPa | 0 mm | - | - | - |
| 1788372131 | 17.78° C | 66% | 1019.9 hPa | 0 mm | - | - | - |
| 1788370330 | 18.89° C | 66% | 1019.6 hPa | 0 mm | - | - | - |
| 1788368531 | 20° C | 61% | 1019.5 hPa | 0 mm | - | - | - |
| 1788366732 | 20.56° C | 59% | 1019.5 hPa | 0 mm | - | - | - |
| 1788364931 | 22.22° C | 53% | 1019.4 hPa | 0 mm | - | - | - |
| 1788363130 | 21.67° C | 59% | 1019.4 hPa | 0 mm | - | - | - |
| 1788361331 | 22.22° C | 48% | 1019.5 hPa | 0 mm | - | - | - |
| 1788359531 | 22.78° C | 51% | 1019.7 hPa | 0 mm | - | - | - |
| 1788357730 | 22.22° C | 56% | 1019.7 hPa | 0 mm | - | - | - |
* Rain since midnight (hover to see other rain measurements)
** Current wind speed in m/s (hover to see current wind gust speed)